sensor_id;sensor_type;location;lat;lon;timestamp;P1;durP1;ratioP1;P2;durP2;ratioP2
3591;SDS011;1810;48.720;9.094;2023-03-04T00:00:36;483.67;;;456.00;;
3591;SDS011;1810;48.720;9.094;2023-03-04T00:03:08;470.33;;;444.02;;
3591;SDS011;1810;48.720;9.094;2023-03-04T00:05:37;477.05;;;450.02;;
3591;SDS011;1810;48.720;9.094;2023-03-04T00:08:08;508.30;;;480.40;;
3591;SDS011;1810;48.720;9.094;2023-03-04T00:10:36;432.30;;;406.80;;
3591;SDS011;1810;48.720;9.094;2023-03-04T00:13:05;401.42;;;377.52;;
3591;SDS011;1810;48.720;9.094;2023-03-04T00:15:33;552.88;;;520.97;;
3591;SDS011;1810;48.720;9.094;2023-03-04T00:18:03;512.22;;;483.27;;
3591;SDS011;1810;48.720;9.094;2023-03-04T00:20:32;608.45;;;573.58;;
3591;SDS011;1810;48.720;9.094;2023-03-04T00:23:01;553.33;;;520.88;;
3591;SDS011;1810;48.720;9.094;2023-03-04T00:25:29;541.63;;;508.98;;
3591;SDS011;1810;48.720;9.094;2023-03-04T00:27:58;400.70;;;377.10;;
3591;SDS011;1810;48.720;9.094;2023-03-04T00:30:27;491.23;;;462.00;;
3591;SDS011;1810;48.720;9.094;2023-03-04T00:32:57;366.13;;;344.30;;
3591;SDS011;1810;48.720;9.094;2023-03-04T00:35:26;474.15;;;446.35;;
3591;SDS011;1810;48.720;9.094;2023-03-04T00:37:54;505.80;;;475.55;;
3591;SDS011;1810;48.720;9.094;2023-03-04T00:40:22;523.97;;;494.92;;
3591;SDS011;1810;48.720;9.094;2023-03-04T00:42:51;497.92;;;469.23;;
3591;SDS011;1810;48.720;9.094;2023-03-04T00:45:19;336.63;;;317.52;;
3591;SDS011;1810;48.720;9.094;2023-03-04T00:47:48;396.88;;;374.85;;
3591;SDS011;1810;48.720;9.094;2023-03-04T00:50:18;504.42;;;476.10;;
3591;SDS011;1810;48.720;9.094;2023-03-04T00:52:47;430.52;;;405.55;;
3591;SDS011;1810;48.720;9.094;2023-03-04T00:55:15;298.75;;;282.42;;
3591;SDS011;1810;48.720;9.094;2023-03-04T00:57:44;362.38;;;341.10;;
3591;SDS011;1810;48.720;9.094;2023-03-04T01:00:12;422.10;;;396.95;;
3591;SDS011;1810;48.720;9.094;2023-03-04T01:02:41;375.40;;;353.20;;
3591;SDS011;1810;48.720;9.094;2023-03-04T01:05:10;434.13;;;408.73;;
3591;SDS011;1810;48.720;9.094;2023-03-04T01:07:40;344.90;;;325.55;;
3591;SDS011;1810;48.720;9.094;2023-03-04T01:10:10;560.30;;;528.33;;
3591;SDS011;1810;48.720;9.094;2023-03-04T01:12:39;470.88;;;444.95;;
3591;SDS011;1810;48.720;9.094;2023-03-04T01:15:08;501.83;;;473.98;;
3591;SDS011;1810;48.720;9.094;2023-03-04T01:17:38;488.08;;;460.80;;
3591;SDS011;1810;48.720;9.094;2023-03-04T01:20:07;336.02;;;317.25;;
3591;SDS011;1810;48.720;9.094;2023-03-04T01:22:37;303.70;;;287.05;;
3591;SDS011;1810;48.720;9.094;2023-03-04T01:25:08;524.95;;;494.77;;
3591;SDS011;1810;48.720;9.094;2023-03-04T01:27:38;337.55;;;318.45;;
3591;SDS011;1810;48.720;9.094;2023-03-04T01:30:06;337.10;;;318.25;;
3591;SDS011;1810;48.720;9.094;2023-03-04T01:32:36;508.73;;;480.52;;
3591;SDS011;1810;48.720;9.094;2023-03-04T01:35:04;444.80;;;419.77;;
3591;SDS011;1810;48.720;9.094;2023-03-04T01:37:33;326.27;;;308.23;;
3591;SDS011;1810;48.720;9.094;2023-03-04T01:40:02;434.35;;;410.92;;
3591;SDS011;1810;48.720;9.094;2023-03-04T01:42:33;322.92;;;304.65;;
3591;SDS011;1810;48.720;9.094;2023-03-04T01:45:02;441.38;;;416.13;;
3591;SDS011;1810;48.720;9.094;2023-03-04T01:47:32;345.20;;;326.48;;
3591;SDS011;1810;48.720;9.094;2023-03-04T01:50:03;428.05;;;404.00;;
3591;SDS011;1810;48.720;9.094;2023-03-04T01:52:33;445.58;;;420.38;;
3591;SDS011;1810;48.720;9.094;2023-03-04T01:55:05;382.40;;;359.80;;
3591;SDS011;1810;48.720;9.094;2023-03-04T01:57:37;506.25;;;476.42;;
3591;SDS011;1810;48.720;9.094;2023-03-04T02:00:10;266.13;;;251.77;;
3591;SDS011;1810;48.720;9.094;2023-03-04T02:02:51;313.23;;;295.20;;
3591;SDS011;1810;48.720;9.094;2023-03-04T02:05:20;340.20;;;320.83;;
3591;SDS011;1810;48.720;9.094;2023-03-04T02:07:50;307.95;;;290.60;;
3591;SDS011;1810;48.720;9.094;2023-03-04T02:10:19;435.75;;;411.00;;
3591;SDS011;1810;48.720;9.094;2023-03-04T02:12:49;337.50;;;318.25;;
3591;SDS011;1810;48.720;9.094;2023-03-04T02:15:18;306.33;;;289.33;;
3591;SDS011;1810;48.720;9.094;2023-03-04T02:17:46;313.67;;;296.00;;
3591;SDS011;1810;48.720;9.094;2023-03-04T02:20:40;180.63;;;171.30;;
3591;SDS011;1810;48.720;9.094;2023-03-04T02:23:14;363.40;;;342.63;;
3591;SDS011;1810;48.720;9.094;2023-03-04T02:25:44;347.50;;;328.08;;
3591;SDS011;1810;48.720;9.094;2023-03-04T02:28:17;286.98;;;270.60;;
3591;SDS011;1810;48.720;9.094;2023-03-04T02:30:45;412.35;;;388.92;;
3591;SDS011;1810;48.720;9.094;2023-03-04T02:33:15;156.00;;;148.43;;
3591;SDS011;1810;48.720;9.094;2023-03-04T02:35:44;349.63;;;329.30;;
3591;SDS011;1810;48.720;9.094;2023-03-04T02:38:13;300.38;;;282.75;;
3591;SDS011;1810;48.720;9.094;2023-03-04T02:40:42;193.43;;;183.25;;
3591;SDS011;1810;48.720;9.094;2023-03-04T02:43:14;231.95;;;219.10;;
3591;SDS011;1810;48.720;9.094;2023-03-04T02:45:45;303.35;;;285.52;;
3591;SDS011;1810;48.720;9.094;2023-03-04T02:48:15;417.95;;;393.40;;
3591;SDS011;1810;48.720;9.094;2023-03-04T02:50:49;275.70;;;260.63;;
3591;SDS011;1810;48.720;9.094;2023-03-04T02:53:19;187.98;;;177.20;;
3591;SDS011;1810;48.720;9.094;2023-03-04T02:55:48;189.35;;;178.70;;
3591;SDS011;1810;48.720;9.094;2023-03-04T02:58:18;463.70;;;435.10;;
3591;SDS011;1810;48.720;9.094;2023-03-04T03:00:46;315.67;;;297.73;;
3591;SDS011;1810;48.720;9.094;2023-03-04T03:03:15;290.25;;;274.33;;
3591;SDS011;1810;48.720;9.094;2023-03-04T03:05:43;566.22;;;530.55;;
3591;SDS011;1810;48.720;9.094;2023-03-04T03:08:12;337.52;;;319.08;;
3591;SDS011;1810;48.720;9.094;2023-03-04T03:10:40;277.65;;;262.75;;
3591;SDS011;1810;48.720;9.094;2023-03-04T03:13:09;540.20;;;506.90;;
3591;SDS011;1810;48.720;9.094;2023-03-04T03:15:39;332.00;;;314.52;;
3591;SDS011;1810;48.720;9.094;2023-03-04T03:18:08;452.73;;;426.52;;
3591;SDS011;1810;48.720;9.094;2023-03-04T03:20:36;607.00;;;570.40;;
3591;SDS011;1810;48.720;9.094;2023-03-04T03:23:05;353.10;;;334.33;;
3591;SDS011;1810;48.720;9.094;2023-03-04T03:25:33;433.45;;;407.95;;
3591;SDS011;1810;48.720;9.094;2023-03-04T03:28:02;249.55;;;236.68;;
3591;SDS011;1810;48.720;9.094;2023-03-04T03:30:30;512.25;;;481.33;;
3591;SDS011;1810;48.720;9.094;2023-03-04T03:33:00;246.38;;;234.88;;
3591;SDS011;1810;48.720;9.094;2023-03-04T03:35:29;379.80;;;358.95;;
3591;SDS011;1810;48.720;9.094;2023-03-04T03:37:57;362.80;;;343.80;;
3591;SDS011;1810;48.720;9.094;2023-03-04T03:40:26;269.17;;;256.38;;
3591;SDS011;1810;48.720;9.094;2023-03-04T03:42:54;275.88;;;262.63;;
3591;SDS011;1810;48.720;9.094;2023-03-04T03:45:23;347.02;;;328.73;;
3591;SDS011;1810;48.720;9.094;2023-03-04T03:47:51;360.27;;;341.25;;
3591;SDS011;1810;48.720;9.094;2023-03-04T03:50:21;495.35;;;465.95;;
3591;SDS011;1810;48.720;9.094;2023-03-04T03:52:50;478.38;;;450.90;;
3591;SDS011;1810;48.720;9.094;2023-03-04T03:55:18;392.08;;;372.08;;
3591;SDS011;1810;48.720;9.094;2023-03-04T03:57:47;366.40;;;346.98;;
3591;SDS011;1810;48.720;9.094;2023-03-04T04:02:44;305.80;;;290.85;;
3591;SDS011;1810;48.720;9.094;2023-03-04T04:05:13;426.05;;;401.80;;
3591;SDS011;1810;48.720;9.094;2023-03-04T04:07:43;380.67;;;359.98;;
3591;SDS011;1810;48.720;9.094;2023-03-04T04:10:11;304.23;;;290.10;;
3591;SDS011;1810;48.720;9.094;2023-03-04T04:12:40;298.10;;;283.80;;
3591;SDS011;1810;48.720;9.094;2023-03-04T04:15:09;337.98;;;320.98;;
3591;SDS011;1810;48.720;9.094;2023-03-04T04:17:38;311.55;;;295.80;;
3591;SDS011;1810;48.720;9.094;2023-03-04T04:20:08;347.75;;;330.25;;
3591;SDS011;1810;48.720;9.094;2023-03-04T04:22:37;381.85;;;361.50;;
3591;SDS011;1810;48.720;9.094;2023-03-04T04:25:08;376.25;;;357.40;;
3591;SDS011;1810;48.720;9.094;2023-03-04T04:27:37;345.13;;;327.23;;
3591;SDS011;1810;48.720;9.094;2023-03-04T04:30:05;336.73;;;320.10;;
3591;SDS011;1810;48.720;9.094;2023-03-04T04:32:35;425.17;;;400.70;;
3591;SDS011;1810;48.720;9.094;2023-03-04T04:35:03;365.75;;;347.38;;
3591;SDS011;1810;48.720;9.094;2023-03-04T04:37:32;370.92;;;352.38;;
3591;SDS011;1810;48.720;9.094;2023-03-04T04:40:01;361.85;;;342.58;;
3591;SDS011;1810;48.720;9.094;2023-03-04T04:42:31;414.48;;;392.20;;
3591;SDS011;1810;48.720;9.094;2023-03-04T04:45:00;346.08;;;327.77;;
3591;SDS011;1810;48.720;9.094;2023-03-04T04:47:28;339.60;;;322.67;;
3591;SDS011;1810;48.720;9.094;2023-03-04T04:49:57;420.55;;;397.45;;
3591;SDS011;1810;48.720;9.094;2023-03-04T04:52:25;359.02;;;341.20;;
3591;SDS011;1810;48.720;9.094;2023-03-04T04:54:54;412.70;;;390.63;;
3591;SDS011;1810;48.720;9.094;2023-03-04T04:57:22;426.48;;;403.70;;
3591;SDS011;1810;48.720;9.094;2023-03-04T04:59:52;447.33;;;422.73;;
3591;SDS011;1810;48.720;9.094;2023-03-04T05:02:20;383.75;;;364.40;;
3591;SDS011;1810;48.720;9.094;2023-03-04T05:04:49;416.65;;;394.85;;
3591;SDS011;1810;48.720;9.094;2023-03-04T05:07:17;394.80;;;374.90;;
3591;SDS011;1810;48.720;9.094;2023-03-04T05:09:46;388.10;;;367.98;;
3591;SDS011;1810;48.720;9.094;2023-03-04T05:12:14;404.77;;;383.95;;
3591;SDS011;1810;48.720;9.094;2023-03-04T05:14:43;377.08;;;358.08;;
3591;SDS011;1810;48.720;9.094;2023-03-04T05:17:12;375.63;;;356.60;;
3591;SDS011;1810;48.720;9.094;2023-03-04T05:19:41;423.67;;;401.20;;
3591;SDS011;1810;48.720;9.094;2023-03-04T05:22:09;368.33;;;350.55;;
3591;SDS011;1810;48.720;9.094;2023-03-04T05:24:38;404.40;;;382.65;;
3591;SDS011;1810;48.720;9.094;2023-03-04T05:27:06;399.05;;;378.85;;
3591;SDS011;1810;48.720;9.094;2023-03-04T05:29:35;426.77;;;404.42;;
3591;SDS011;1810;48.720;9.094;2023-03-04T05:32:03;432.52;;;410.20;;
3591;SDS011;1810;48.720;9.094;2023-03-04T05:34:33;494.10;;;466.42;;
3591;SDS011;1810;48.720;9.094;2023-03-04T05:37:02;417.75;;;396.55;;
3591;SDS011;1810;48.720;9.094;2023-03-04T05:39:30;498.55;;;471.70;;
3591;SDS011;1810;48.720;9.094;2023-03-04T05:41:59;449.52;;;425.70;;
3591;SDS011;1810;48.720;9.094;2023-03-04T05:44:28;509.70;;;480.60;;
3591;SDS011;1810;48.720;9.094;2023-03-04T05:46:56;392.30;;;372.58;;
3591;SDS011;1810;48.720;9.094;2023-03-04T05:49:24;459.30;;;434.02;;
3591;SDS011;1810;48.720;9.094;2023-03-04T05:51:55;483.58;;;455.63;;
3591;SDS011;1810;48.720;9.094;2023-03-04T05:54:23;426.63;;;404.77;;
3591;SDS011;1810;48.720;9.094;2023-03-04T05:56:52;477.65;;;450.88;;
3591;SDS011;1810;48.720;9.094;2023-03-04T05:59:20;504.30;;;476.00;;
3591;SDS011;1810;48.720;9.094;2023-03-04T06:01:49;469.15;;;444.05;;
3591;SDS011;1810;48.720;9.094;2023-03-04T06:04:17;520.67;;;491.52;;
3591;SDS011;1810;48.720;9.094;2023-03-04T06:06:46;528.17;;;498.15;;
3591;SDS011;1810;48.720;9.094;2023-03-04T06:09:16;562.50;;;530.00;;
3591;SDS011;1810;48.720;9.094;2023-03-04T06:11:46;546.70;;;515.08;;
3591;SDS011;1810;48.720;9.094;2023-03-04T06:14:14;506.02;;;478.00;;
3591;SDS011;1810;48.720;9.094;2023-03-04T06:16:43;506.38;;;478.15;;
3591;SDS011;1810;48.720;9.094;2023-03-04T06:19:12;541.55;;;510.77;;
3591;SDS011;1810;48.720;9.094;2023-03-04T06:21:40;497.25;;;469.85;;
3591;SDS011;1810;48.720;9.094;2023-03-04T06:24:08;554.83;;;522.80;;
3591;SDS011;1810;48.720;9.094;2023-03-04T06:26:38;538.42;;;507.73;;
3591;SDS011;1810;48.720;9.094;2023-03-04T06:29:07;594.17;;;558.28;;
3591;SDS011;1810;48.720;9.094;2023-03-04T06:31:35;537.53;;;506.75;;
3591;SDS011;1810;48.720;9.094;2023-03-04T06:34:05;486.75;;;461.02;;
3591;SDS011;1810;48.720;9.094;2023-03-04T06:36:33;498.30;;;471.85;;
3591;SDS011;1810;48.720;9.094;2023-03-04T06:39:02;542.53;;;511.63;;
3591;SDS011;1810;48.720;9.094;2023-03-04T06:41:31;517.92;;;489.85;;
3591;SDS011;1810;48.720;9.094;2023-03-04T06:44:01;522.30;;;492.27;;
3591;SDS011;1810;48.720;9.094;2023-03-04T06:46:31;545.15;;;512.58;;
3591;SDS011;1810;48.720;9.094;2023-03-04T06:49:00;570.05;;;536.05;;
3591;SDS011;1810;48.720;9.094;2023-03-04T06:51:29;511.75;;;483.20;;
3591;SDS011;1810;48.720;9.094;2023-03-04T06:53:57;494.20;;;467.77;;
3591;SDS011;1810;48.720;9.094;2023-03-04T06:56:26;435.13;;;413.30;;
3591;SDS011;1810;48.720;9.094;2023-03-04T06:58:54;533.38;;;502.85;;
3591;SDS011;1810;48.720;9.094;2023-03-04T07:01:25;391.75;;;372.60;;
3591;SDS011;1810;48.720;9.094;2023-03-04T07:03:55;354.67;;;336.42;;
3591;SDS011;1810;48.720;9.094;2023-03-04T07:06:25;380.48;;;359.83;;
3591;SDS011;1810;48.720;9.094;2023-03-04T07:08:54;343.95;;;325.25;;
3591;SDS011;1810;48.720;9.094;2023-03-04T07:11:23;369.70;;;347.33;;
3591;SDS011;1810;48.720;9.094;2023-03-04T07:13:52;441.17;;;414.20;;
3591;SDS011;1810;48.720;9.094;2023-03-04T07:16:21;337.15;;;319.30;;
3591;SDS011;1810;48.720;9.094;2023-03-04T07:18:51;326.17;;;308.70;;
3591;SDS011;1810;48.720;9.094;2023-03-04T07:21:20;355.10;;;336.52;;
3591;SDS011;1810;48.720;9.094;2023-03-04T07:23:49;363.50;;;342.80;;
3591;SDS011;1810;48.720;9.094;2023-03-04T07:26:17;309.27;;;293.33;;
3591;SDS011;1810;48.720;9.094;2023-03-04T07:28:46;382.45;;;361.50;;
3591;SDS011;1810;48.720;9.094;2023-03-04T07:31:21;319.90;;;303.52;;
3591;SDS011;1810;48.720;9.094;2023-03-04T07:33:54;454.35;;;428.60;;
3591;SDS011;1810;48.720;9.094;2023-03-04T07:36:24;384.08;;;362.90;;
3591;SDS011;1810;48.720;9.094;2023-03-04T07:38:53;276.08;;;263.23;;
3591;SDS011;1810;48.720;9.094;2023-03-04T07:41:22;385.48;;;364.55;;
3591;SDS011;1810;48.720;9.094;2023-03-04T07:43:54;368.50;;;348.63;;
3591;SDS011;1810;48.720;9.094;2023-03-04T07:46:23;188.40;;;178.93;;
3591;SDS011;1810;48.720;9.094;2023-03-04T07:48:54;167.30;;;158.57;;
3591;SDS011;1810;48.720;9.094;2023-03-04T07:51:23;231.45;;;219.73;;
3591;SDS011;1810;48.720;9.094;2023-03-04T07:53:55;232.10;;;220.00;;
3591;SDS011;1810;48.720;9.094;2023-03-04T07:56:26;301.40;;;284.05;;
3591;SDS011;1810;48.720;9.094;2023-03-04T07:58:56;294.23;;;279.13;;
3591;SDS011;1810;48.720;9.094;2023-03-04T08:01:26;261.65;;;248.13;;
3591;SDS011;1810;48.720;9.094;2023-03-04T08:03:57;268.13;;;254.20;;
3591;SDS011;1810;48.720;9.094;2023-03-04T08:06:26;202.77;;;192.98;;
3591;SDS011;1810;48.720;9.094;2023-03-04T08:08:55;293.50;;;276.83;;
3591;SDS011;1810;48.720;9.094;2023-03-04T08:11:24;329.88;;;310.27;;
3591;SDS011;1810;48.720;9.094;2023-03-04T08:13:54;244.65;;;232.43;;
3591;SDS011;1810;48.720;9.094;2023-03-04T08:16:23;264.77;;;249.32;;
3591;SDS011;1810;48.720;9.094;2023-03-04T08:18:53;410.42;;;386.05;;
3591;SDS011;1810;48.720;9.094;2023-03-04T08:21:24;202.27;;;191.13;;
3591;SDS011;1810;48.720;9.094;2023-03-04T08:23:53;119.10;;;112.68;;
3591;SDS011;1810;48.720;9.094;2023-03-04T08:26:24;154.40;;;146.15;;
3591;SDS011;1810;48.720;9.094;2023-03-04T08:28:55;135.45;;;128.10;;
3591;SDS011;1810;48.720;9.094;2023-03-04T08:31:24;204.35;;;193.35;;
3591;SDS011;1810;48.720;9.094;2023-03-04T08:33:52;182.00;;;172.18;;
3591;SDS011;1810;48.720;9.094;2023-03-04T08:36:21;204.95;;;194.13;;
3591;SDS011;1810;48.720;9.094;2023-03-04T08:38:51;189.88;;;179.68;;
3591;SDS011;1810;48.720;9.094;2023-03-04T08:41:20;281.13;;;264.77;;
3591;SDS011;1810;48.720;9.094;2023-03-04T08:43:50;196.10;;;185.55;;
3591;SDS011;1810;48.720;9.094;2023-03-04T08:46:19;176.82;;;167.85;;
3591;SDS011;1810;48.720;9.094;2023-03-04T08:48:48;251.48;;;237.63;;
3591;SDS011;1810;48.720;9.094;2023-03-04T08:51:17;147.93;;;140.60;;
3591;SDS011;1810;48.720;9.094;2023-03-04T08:53:46;196.88;;;185.70;;
3591;SDS011;1810;48.720;9.094;2023-03-04T08:56:15;191.13;;;181.10;;
3591;SDS011;1810;48.720;9.094;2023-03-04T08:58:44;195.60;;;185.80;;
3591;SDS011;1810;48.720;9.094;2023-03-04T09:01:13;173.48;;;164.38;;
3591;SDS011;1810;48.720;9.094;2023-03-04T09:03:42;141.45;;;133.10;;
3591;SDS011;1810;48.720;9.094;2023-03-04T09:06:11;206.60;;;195.75;;
3591;SDS011;1810;48.720;9.094;2023-03-04T09:08:41;259.35;;;245.25;;
3591;SDS011;1810;48.720;9.094;2023-03-04T09:11:11;209.32;;;197.85;;
3591;SDS011;1810;48.720;9.094;2023-03-04T09:13:40;258.17;;;243.32;;
3591;SDS011;1810;48.720;9.094;2023-03-04T09:16:09;190.43;;;179.25;;
3591;SDS011;1810;48.720;9.094;2023-03-04T09:18:40;188.43;;;178.52;;
3591;SDS011;1810;48.720;9.094;2023-03-04T09:21:09;183.38;;;173.43;;
3591;SDS011;1810;48.720;9.094;2023-03-04T09:23:38;129.95;;;123.55;;
3591;SDS011;1810;48.720;9.094;2023-03-04T09:26:15;188.10;;;177.90;;
3591;SDS011;1810;48.720;9.094;2023-03-04T09:28:48;499.05;;;467.65;;
3591;SDS011;1810;48.720;9.094;2023-03-04T09:31:17;166.80;;;157.57;;
3591;SDS011;1810;48.720;9.094;2023-03-04T09:33:50;181.38;;;173.02;;
3591;SDS011;1810;48.720;9.094;2023-03-04T09:36:20;159.85;;;151.85;;
3591;SDS011;1810;48.720;9.094;2023-03-04T09:38:54;236.43;;;222.77;;
3591;SDS011;1810;48.720;9.094;2023-03-04T09:41:33;197.18;;;186.65;;
3591;SDS011;1810;48.720;9.094;2023-03-04T09:44:15;239.57;;;226.60;;
3591;SDS011;1810;48.720;9.094;2023-03-04T09:46:52;282.55;;;264.80;;
3591;SDS011;1810;48.720;9.094;2023-03-04T09:49:27;327.80;;;308.83;;
3591;SDS011;1810;48.720;9.094;2023-03-04T09:51:59;157.95;;;149.32;;
3591;SDS011;1810;48.720;9.094;2023-03-04T09:54:47;289.00;;;273.17;;
3591;SDS011;1810;48.720;9.094;2023-03-04T09:57:29;188.43;;;178.77;;
3591;SDS011;1810;48.720;9.094;2023-03-04T10:00:19;139.00;;;131.57;;
3591;SDS011;1810;48.720;9.094;2023-03-04T10:02:56;257.30;;;244.15;;
3591;SDS011;1810;48.720;9.094;2023-03-04T10:05:40;272.88;;;258.55;;
3591;SDS011;1810;48.720;9.094;2023-03-04T10:08:25;166.45;;;157.82;;
3591;SDS011;1810;48.720;9.094;2023-03-04T10:11:09;201.25;;;191.40;;
3591;SDS011;1810;48.720;9.094;2023-03-04T10:13:52;245.65;;;232.90;;
3591;SDS011;1810;48.720;9.094;2023-03-04T10:16:30;150.02;;;142.23;;
3591;SDS011;1810;48.720;9.094;2023-03-04T10:19:14;269.77;;;255.77;;
3591;SDS011;1810;48.720;9.094;2023-03-04T10:21:50;179.50;;;169.90;;
3591;SDS011;1810;48.720;9.094;2023-03-04T10:24:28;95.70;;;90.32;;
3591;SDS011;1810;48.720;9.094;2023-03-04T10:27:01;117.10;;;111.20;;
3591;SDS011;1810;48.720;9.094;2023-03-04T10:29:35;120.70;;;114.47;;
3591;SDS011;1810;48.720;9.094;2023-03-04T10:32:04;136.00;;;128.85;;
3591;SDS011;1810;48.720;9.094;2023-03-04T10:34:37;192.35;;;182.30;;
3591;SDS011;1810;48.720;9.094;2023-03-04T10:37:24;160.35;;;152.23;;
3591;SDS011;1810;48.720;9.094;2023-03-04T10:40:19;222.60;;;210.88;;
3591;SDS011;1810;48.720;9.094;2023-03-04T10:42:57;160.80;;;148.38;;
3591;SDS011;1810;48.720;9.094;2023-03-04T10:45:36;117.72;;;111.18;;
3591;SDS011;1810;48.720;9.094;2023-03-04T10:48:19;161.10;;;153.15;;
3591;SDS011;1810;48.720;9.094;2023-03-04T10:50:49;223.13;;;211.18;;
3591;SDS011;1810;48.720;9.094;2023-03-04T10:53:23;107.93;;;102.13;;
3591;SDS011;1810;48.720;9.094;2023-03-04T10:55:58;158.45;;;149.98;;
3591;SDS011;1810;48.720;9.094;2023-03-04T10:58:28;132.10;;;125.40;;
3591;SDS011;1810;48.720;9.094;2023-03-04T11:01:03;161.68;;;152.88;;
3591;SDS011;1810;48.720;9.094;2023-03-04T11:03:34;218.80;;;207.30;;
3591;SDS011;1810;48.720;9.094;2023-03-04T11:06:05;324.35;;;308.13;;
3591;SDS011;1810;48.720;9.094;2023-03-04T11:08:42;426.52;;;403.60;;
3591;SDS011;1810;48.720;9.094;2023-03-04T11:11:20;314.65;;;299.17;;
3591;SDS011;1810;48.720;9.094;2023-03-04T11:13:52;182.40;;;173.02;;
3591;SDS011;1810;48.720;9.094;2023-03-04T11:16:28;368.80;;;350.50;;
3591;SDS011;1810;48.720;9.094;2023-03-04T11:19:02;431.75;;;406.23;;
3591;SDS011;1810;48.720;9.094;2023-03-04T11:21:33;401.15;;;377.52;;
3591;SDS011;1810;48.720;9.094;2023-03-04T11:24:07;291.13;;;275.75;;
3591;SDS011;1810;48.720;9.094;2023-03-04T11:26:54;288.20;;;273.75;;
3591;SDS011;1810;48.720;9.094;2023-03-04T11:29:27;232.50;;;219.52;;
3591;SDS011;1810;48.720;9.094;2023-03-04T11:32:02;360.95;;;341.85;;
3591;SDS011;1810;48.720;9.094;2023-03-04T11:34:41;179.40;;;170.10;;
3591;SDS011;1810;48.720;9.094;2023-03-04T11:37:15;144.40;;;136.98;;
3591;SDS011;1810;48.720;9.094;2023-03-04T11:39:49;317.80;;;301.02;;
3591;SDS011;1810;48.720;9.094;2023-03-04T11:42:22;220.38;;;209.13;;
3591;SDS011;1810;48.720;9.094;2023-03-04T11:44:55;146.60;;;138.35;;
3591;SDS011;1810;48.720;9.094;2023-03-04T11:50:20;181.82;;;172.73;;
3591;SDS011;1810;48.720;9.094;2023-03-04T11:52:59;235.15;;;223.05;;
3591;SDS011;1810;48.720;9.094;2023-03-04T11:55:37;232.40;;;220.48;;
3591;SDS011;1810;48.720;9.094;2023-03-04T12:01:54;177.30;;;167.98;;
3591;SDS011;1810;48.720;9.094;2023-03-04T12:04:35;146.13;;;138.18;;
3591;SDS011;1810;48.720;9.094;2023-03-04T12:07:17;260.10;;;247.30;;
3591;SDS011;1810;48.720;9.094;2023-03-04T12:09:56;245.57;;;233.10;;
3591;SDS011;1810;48.720;9.094;2023-03-04T12:12:37;222.13;;;210.68;;
3591;SDS011;1810;48.720;9.094;2023-03-04T12:15:19;115.82;;;109.80;;
3591;SDS011;1810;48.720;9.094;2023-03-04T12:17:55;408.02;;;383.40;;
3591;SDS011;1810;48.720;9.094;2023-03-04T12:23:29;184.98;;;174.98;;
3591;SDS011;1810;48.720;9.094;2023-03-04T12:26:07;210.85;;;199.93;;
3591;SDS011;1810;48.720;9.094;2023-03-04T12:28:46;265.13;;;251.55;;
3591;SDS011;1810;48.720;9.094;2023-03-04T12:37:07;393.10;;;372.65;;
3591;SDS011;1810;48.720;9.094;2023-03-04T12:39:46;185.52;;;175.10;;
3591;SDS011;1810;48.720;9.094;2023-03-04T12:42:26;191.45;;;182.32;;
3591;SDS011;1810;48.720;9.094;2023-03-04T12:45:03;255.85;;;242.60;;
3591;SDS011;1810;48.720;9.094;2023-03-04T12:47:42;234.18;;;222.15;;
3591;SDS011;1810;48.720;9.094;2023-03-04T12:50:23;342.67;;;325.10;;
3591;SDS011;1810;48.720;9.094;2023-03-04T12:53:03;243.52;;;230.32;;
3591;SDS011;1810;48.720;9.094;2023-03-04T12:55:41;235.75;;;223.65;;
3591;SDS011;1810;48.720;9.094;2023-03-04T12:58:12;249.63;;;238.00;;
3591;SDS011;1810;48.720;9.094;2023-03-04T13:00:48;156.38;;;148.50;;
3591;SDS011;1810;48.720;9.094;2023-03-04T13:03:30;368.25;;;347.77;;
3591;SDS011;1810;48.720;9.094;2023-03-04T13:06:18;217.05;;;206.02;;
3591;SDS011;1810;48.720;9.094;2023-03-04T13:08:57;342.30;;;324.30;;
3591;SDS011;1810;48.720;9.094;2023-03-04T13:11:52;190.43;;;181.07;;
3591;SDS011;1810;48.720;9.094;2023-03-04T13:14:30;197.95;;;188.02;;
3591;SDS011;1810;48.720;9.094;2023-03-04T13:17:00;153.18;;;145.32;;
3591;SDS011;1810;48.720;9.094;2023-03-04T13:19:45;134.45;;;126.95;;
3591;SDS011;1810;48.720;9.094;2023-03-04T13:25:33;127.70;;;121.07;;
3591;SDS011;1810;48.720;9.094;2023-03-04T13:28:20;237.68;;;225.25;;
3591;SDS011;1810;48.720;9.094;2023-03-04T13:33:58;155.95;;;146.50;;
3591;SDS011;1810;48.720;9.094;2023-03-04T13:36:32;229.50;;;217.45;;
3591;SDS011;1810;48.720;9.094;2023-03-04T13:39:24;125.18;;;119.20;;
3591;SDS011;1810;48.720;9.094;2023-03-04T13:42:00;213.75;;;202.95;;
3591;SDS011;1810;48.720;9.094;2023-03-04T13:44:56;180.95;;;171.98;;
3591;SDS011;1810;48.720;9.094;2023-03-04T13:47:31;139.93;;;133.18;;
3591;SDS011;1810;48.720;9.094;2023-03-04T13:50:26;338.05;;;321.02;;
3591;SDS011;1810;48.720;9.094;2023-03-04T13:53:25;384.63;;;361.87;;
3591;SDS011;1810;48.720;9.094;2023-03-04T14:02:00;203.27;;;192.75;;
3591;SDS011;1810;48.720;9.094;2023-03-04T14:04:35;474.25;;;446.42;;
3591;SDS011;1810;48.720;9.094;2023-03-04T14:07:15;136.57;;;129.10;;
3591;SDS011;1810;48.720;9.094;2023-03-04T14:09:53;208.38;;;197.30;;
3591;SDS011;1810;48.720;9.094;2023-03-04T14:12:26;153.77;;;146.02;;
3591;SDS011;1810;48.720;9.094;2023-03-04T14:14:57;181.90;;;173.20;;
3591;SDS011;1810;48.720;9.094;2023-03-04T14:17:28;275.92;;;261.58;;
3591;SDS011;1810;48.720;9.094;2023-03-04T14:19:58;138.02;;;131.23;;
3591;SDS011;1810;48.720;9.094;2023-03-04T14:22:29;166.75;;;158.02;;
3591;SDS011;1810;48.720;9.094;2023-03-04T14:24:59;272.67;;;257.75;;
3591;SDS011;1810;48.720;9.094;2023-03-04T14:27:31;121.18;;;115.22;;
3591;SDS011;1810;48.720;9.094;2023-03-04T14:30:03;126.15;;;120.18;;
3591;SDS011;1810;48.720;9.094;2023-03-04T14:32:34;232.13;;;220.57;;
3591;SDS011;1810;48.720;9.094;2023-03-04T14:35:03;123.53;;;117.75;;
3591;SDS011;1810;48.720;9.094;2023-03-04T14:37:36;231.90;;;219.80;;
3591;SDS011;1810;48.720;9.094;2023-03-04T14:40:10;121.80;;;115.78;;
3591;SDS011;1810;48.720;9.094;2023-03-04T14:42:46;123.75;;;117.78;;
3591;SDS011;1810;48.720;9.094;2023-03-04T14:45:20;113.03;;;107.63;;
3591;SDS011;1810;48.720;9.094;2023-03-04T14:47:49;146.57;;;139.20;;
3591;SDS011;1810;48.720;9.094;2023-03-04T14:50:21;141.73;;;134.70;;
3591;SDS011;1810;48.720;9.094;2023-03-04T14:52:50;198.70;;;187.82;;
3591;SDS011;1810;48.720;9.094;2023-03-04T14:55:31;121.18;;;115.45;;
3591;SDS011;1810;48.720;9.094;2023-03-04T14:58:05;120.93;;;115.10;;
3591;SDS011;1810;48.720;9.094;2023-03-04T15:00:38;129.93;;;123.00;;
3591;SDS011;1810;48.720;9.094;2023-03-04T15:03:16;232.18;;;220.10;;
3591;SDS011;1810;48.720;9.094;2023-03-04T15:05:47;311.40;;;293.48;;
3591;SDS011;1810;48.720;9.094;2023-03-04T15:08:19;195.70;;;185.43;;
3591;SDS011;1810;48.720;9.094;2023-03-04T15:13:35;133.07;;;125.82;;
3591;SDS011;1810;48.720;9.094;2023-03-04T15:16:06;116.65;;;110.70;;
3591;SDS011;1810;48.720;9.094;2023-03-04T15:18:35;104.22;;;98.50;;
3591;SDS011;1810;48.720;9.094;2023-03-04T15:21:24;152.52;;;143.95;;